createdAt,value
2022-09-12T00:01:35.706Z,22.13
2022-09-12T00:04:04.738Z,21.92
2022-09-12T00:06:35.584Z,21.63
2022-09-12T00:09:08.064Z,21.63
2022-09-12T00:11:40.042Z,21.66
2022-09-12T00:14:10.062Z,21.80
2022-09-12T00:16:39.738Z,21.85
2022-09-12T00:19:08.946Z,21.91
2022-09-12T00:21:39.372Z,21.79
2022-09-12T00:24:16.418Z,21.78
2022-09-12T00:26:46.287Z,21.70
2022-09-12T00:29:17.465Z,21.73
2022-09-12T00:31:46.328Z,21.69
2022-09-12T00:34:15.462Z,21.66
2022-09-12T00:36:44.006Z,21.56
2022-09-12T00:39:17.870Z,21.48
2022-09-12T00:41:47.751Z,21.52
2022-09-12T00:44:44.619Z,21.64
2022-09-12T00:47:19.019Z,21.59
2022-09-12T00:49:51.106Z,21.68
2022-09-12T00:52:23.412Z,21.72
2022-09-12T00:54:57.327Z,21.49
2022-09-12T00:57:34.495Z,21.53
2022-09-12T01:00:11.820Z,21.48
2022-09-12T01:02:40.403Z,21.49
2022-09-12T01:05:10.554Z,21.63
2022-09-12T01:07:40.435Z,21.57
2022-09-12T01:10:10.943Z,21.56
2022-09-12T01:12:43.764Z,21.52
2022-09-12T01:15:12.943Z,21.61
2022-09-12T01:17:53.291Z,21.71
2022-09-12T01:20:36.897Z,21.59
2022-09-12T01:23:21.340Z,21.68
2022-09-12T01:26:04.251Z,21.51
2022-09-12T01:28:54.675Z,21.49
2022-09-12T01:31:31.859Z,21.42
2022-09-12T01:34:10.601Z,21.60
2022-09-12T01:36:51.854Z,21.45
2022-09-12T01:39:31.412Z,21.46
2022-09-12T01:42:11.460Z,21.58
2022-09-12T01:44:49.233Z,21.62
2022-09-12T01:47:25.223Z,21.61
2022-09-12T01:50:01.802Z,21.50
2022-09-12T01:52:37.738Z,21.50
2022-09-12T01:55:11.531Z,21.37
2022-09-12T01:57:45.033Z,21.36
2022-09-12T02:00:15.046Z,21.29
2022-09-12T02:02:52.060Z,21.31
2022-09-12T02:05:27.110Z,21.32
2022-09-12T02:08:03.303Z,21.43
2022-09-12T02:10:35.196Z,21.42
2022-09-12T02:13:13.088Z,21.46
2022-09-12T02:15:47.482Z,21.49
2022-09-12T02:18:19.630Z,21.43
2022-09-12T02:20:50.195Z,21.33
2022-09-12T02:23:22.211Z,21.16
2022-09-12T02:25:54.597Z,21.11
2022-09-12T02:28:26.598Z,21.14
2022-09-12T02:31:10.246Z,21.27
2022-09-12T02:33:49.987Z,21.40
2022-09-12T02:36:33.480Z,21.45
2022-09-12T02:39:02.369Z,21.45
2022-09-12T02:41:30.848Z,21.54
2022-09-12T02:43:59.520Z,21.57
2022-09-12T02:46:33.496Z,21.59
2022-09-12T02:49:03.851Z,21.65
2022-09-12T02:51:33.070Z,21.69
2022-09-12T02:54:02.360Z,21.79
2022-09-12T02:56:32.369Z,21.64
2022-09-12T02:59:04.316Z,21.67
2022-09-12T03:01:49.395Z,21.69
2022-09-12T03:04:46.869Z,21.58
2022-09-12T03:07:22.188Z,21.49
2022-09-12T03:10:02.590Z,21.58
2022-09-12T03:12:44.575Z,21.43
2022-09-12T03:15:29.106Z,21.40
2022-09-12T03:18:19.970Z,21.36
2022-09-12T03:20:58.837Z,21.47
2022-09-12T03:23:34.647Z,21.60
2022-09-12T03:26:08.100Z,21.59
2022-09-12T03:28:40.740Z,21.53
2022-09-12T03:31:16.262Z,21.62
2022-09-12T03:33:45.167Z,21.65
2022-09-12T03:36:20.675Z,21.71
2022-09-12T03:38:49.162Z,21.78
2022-09-12T03:41:17.662Z,21.83
2022-09-12T03:43:47.046Z,21.81
2022-09-12T03:46:16.657Z,21.93
2022-09-12T03:48:45.203Z,21.82
2022-09-12T03:51:13.801Z,21.77
2022-09-12T03:53:43.748Z,21.79
2022-09-12T03:56:13.591Z,21.72
2022-09-12T03:58:42.945Z,21.79
2022-09-12T04:04:06.935Z,21.90
2022-09-12T04:06:35.725Z,21.79
2022-09-12T04:09:05.758Z,21.89
2022-09-12T04:11:35.965Z,21.63
2022-09-12T04:14:04.462Z,21.59
2022-09-12T04:16:33.576Z,21.39
2022-09-12T04:19:02.349Z,21.53
2022-09-12T04:21:31.107Z,21.48
2022-09-12T04:23:59.581Z,21.63
2022-09-12T04:26:30.055Z,21.61
2022-09-12T04:28:58.546Z,21.67
2022-09-12T04:31:27.515Z,21.69
2022-09-12T04:33:56.696Z,21.69
2022-09-12T04:36:25.761Z,21.69
2022-09-12T04:38:54.949Z,21.67
2022-09-12T04:41:25.975Z,21.65
2022-09-12T04:43:58.990Z,21.53
2022-09-12T04:46:27.847Z,21.46
2022-09-12T04:48:57.191Z,21.44
2022-09-12T04:51:28.453Z,21.33
2022-09-12T04:53:58.424Z,21.37
2022-09-12T04:56:28.135Z,21.15
2022-09-12T04:59:00.927Z,20.98
2022-09-12T05:01:30.526Z,21.08
2022-09-12T05:04:00.060Z,20.98
2022-09-12T05:06:30.939Z,21.19
2022-09-12T05:08:59.815Z,21.24
2022-09-12T05:11:53.081Z,21.23
2022-09-12T05:14:20.835Z,21.20
2022-09-12T05:16:49.957Z,20.99
2022-09-12T05:19:18.794Z,20.87
2022-09-12T05:21:47.254Z,20.89
2022-09-12T05:24:15.937Z,20.81
2022-09-12T05:26:44.415Z,20.70
2022-09-12T05:29:13.346Z,20.81
2022-09-12T05:31:43.503Z,21.00
2022-09-12T05:34:12.816Z,20.98
2022-09-12T05:36:41.285Z,21.01
2022-09-12T05:39:09.828Z,20.86
2022-09-12T05:41:38.277Z,20.78
2022-09-12T05:44:08.594Z,20.86
2022-09-12T05:46:39.918Z,20.90
2022-09-12T05:49:11.589Z,20.94
2022-09-12T05:51:42.193Z,20.91
2022-09-12T05:54:13.705Z,20.85
2022-09-12T05:56:44.372Z,20.84
2022-09-12T05:59:15.469Z,20.87
2022-09-12T06:01:44.748Z,20.78
2022-09-12T06:04:14.727Z,20.72
2022-09-12T06:06:45.302Z,20.73
2022-09-12T06:09:15.404Z,20.73
2022-09-12T06:11:44.686Z,20.76
2022-09-12T06:14:14.808Z,20.82
2022-09-12T06:16:43.576Z,20.85
2022-09-12T06:19:17.867Z,20.85
2022-09-12T06:21:47.706Z,20.79
2022-09-12T06:24:16.223Z,20.76
2022-09-12T06:26:45.308Z,20.78
2022-09-12T06:29:14.148Z,20.70
2022-09-12T06:31:44.415Z,20.70
2022-09-12T06:34:16.616Z,20.65
2022-09-12T06:36:47.475Z,20.69
2022-09-12T06:39:18.487Z,20.63
2022-09-12T06:41:48.486Z,20.67
2022-09-12T06:44:19.479Z,20.75
2022-09-12T06:46:48.249Z,20.76
2022-09-12T06:49:18.671Z,20.77
2022-09-12T06:51:47.358Z,20.93
2022-09-12T06:54:17.509Z,20.90
2022-09-12T06:56:46.405Z,20.84
2022-09-12T06:59:15.188Z,20.82
2022-09-12T07:01:43.948Z,20.81
2022-09-12T07:04:12.808Z,21.08
2022-09-12T07:06:44.896Z,21.27
2022-09-12T07:09:16.483Z,21.37
2022-09-12T07:11:46.079Z,21.38
2022-09-12T07:14:15.911Z,21.20
2022-09-12T07:16:44.740Z,21.39
2022-09-12T07:19:13.447Z,21.56
2022-09-12T07:21:43.301Z,21.49
2022-09-12T07:24:12.111Z,21.77
2022-09-12T07:26:42.312Z,21.80
2022-09-12T07:29:35.786Z,21.90
2022-09-12T07:32:06.031Z,21.78
2022-09-12T07:34:35.290Z,21.82
2022-09-12T07:37:05.260Z,21.97
2022-09-12T07:39:33.820Z,22.24
2022-09-12T07:42:02.322Z,22.31
2022-09-12T07:44:30.788Z,22.39
2022-09-12T07:46:59.400Z,22.61
2022-09-12T07:49:27.853Z,22.76
2022-09-12T07:52:00.951Z,22.88
2022-09-12T07:54:31.998Z,22.64
2022-09-12T07:57:00.505Z,22.73
2022-09-12T07:59:51.410Z,23.01
2022-09-12T08:02:18.478Z,23.05
2022-09-12T08:04:48.541Z,23.08
2022-09-12T08:07:18.555Z,23.12
2022-09-12T08:09:50.075Z,22.66
2022-09-12T08:12:20.446Z,22.31
2022-09-12T08:14:48.954Z,22.52
2022-09-12T08:17:17.378Z,22.48
2022-09-12T08:19:47.779Z,22.38
2022-09-12T08:22:22.118Z,22.29
2022-09-12T08:24:52.600Z,22.24
2022-09-12T08:27:21.254Z,22.03
2022-09-12T08:29:49.780Z,21.91
2022-09-12T08:32:18.495Z,21.80
2022-09-12T08:34:47.278Z,21.69
2022-09-12T08:37:15.786Z,21.65
2022-09-12T08:39:44.355Z,21.79
2022-09-12T08:42:25.967Z,22.10
2022-09-12T08:45:16.029Z,22.30
2022-09-12T08:47:46.691Z,22.57
2022-09-12T08:50:19.068Z,22.82
2022-09-12T08:52:58.759Z,23.00
2022-09-12T08:55:32.873Z,23.11
2022-09-12T08:58:09.340Z,23.49
2022-09-12T09:00:47.605Z,23.69
2022-09-12T09:03:31.277Z,23.50
2022-09-12T09:06:08.434Z,23.71
2022-09-12T09:08:53.461Z,24.11
2022-09-12T09:11:33.673Z,23.99
2022-09-12T09:14:39.652Z,23.90
2022-09-12T09:17:16.722Z,23.64
2022-09-12T09:19:51.091Z,23.48
2022-09-12T09:22:29.172Z,23.98
2022-09-12T09:25:03.818Z,23.99
2022-09-12T09:27:41.026Z,23.96
2022-09-12T09:30:16.112Z,24.33
2022-09-12T09:32:49.233Z,24.29
2022-09-12T09:35:20.709Z,24.53
2022-09-12T09:38:01.998Z,25.27
2022-09-12T09:40:46.544Z,25.97
2022-09-12T09:43:23.090Z,25.34
2022-09-12T09:45:54.233Z,25.51
2022-09-12T09:48:28.406Z,25.99
2022-09-12T09:51:01.993Z,25.81
2022-09-12T09:53:39.645Z,25.82
2022-09-12T09:56:12.925Z,25.73
2022-09-12T09:58:42.266Z,25.99
2022-09-12T10:01:18.147Z,25.21
2022-09-12T10:03:52.422Z,25.82
2022-09-12T10:06:32.479Z,25.77
2022-09-12T10:09:19.081Z,25.78
2022-09-12T10:11:48.579Z,25.64
2022-09-12T10:14:32.601Z,25.38
2022-09-12T10:17:04.237Z,25.16
2022-09-12T10:19:37.787Z,24.76
2022-09-12T10:22:08.069Z,24.42
2022-09-12T10:24:40.804Z,24.23
2022-09-12T10:27:20.397Z,24.28
2022-09-12T10:29:52.023Z,24.25
2022-09-12T10:32:30.977Z,24.30
2022-09-12T10:35:04.023Z,24.38
2022-09-12T10:37:36.060Z,24.67
2022-09-12T10:40:07.492Z,25.06
2022-09-12T10:42:51.237Z,26.47
2022-09-12T10:45:25.460Z,27.83
2022-09-12T10:47:56.799Z,27.77
2022-09-12T10:50:29.709Z,27.38
2022-09-12T10:53:16.170Z,26.13
2022-09-12T10:55:59.315Z,25.47
2022-09-12T10:58:57.107Z,25.17
2022-09-12T11:01:41.819Z,24.79
2022-09-12T11:04:30.362Z,24.47
2022-09-12T11:07:27.204Z,24.20
2022-09-12T11:10:01.821Z,24.27
2022-09-12T11:12:38.579Z,23.87
2022-09-12T11:15:31.175Z,24.32
2022-09-12T11:18:10.274Z,24.75
2022-09-12T11:20:55.151Z,24.95
2022-09-12T11:23:44.082Z,24.96
2022-09-12T11:26:26.428Z,25.73
2022-09-12T11:29:08.269Z,26.77
2022-09-12T11:31:55.328Z,27.09
2022-09-12T11:34:31.537Z,27.26
2022-09-12T11:37:25.999Z,26.65
2022-09-12T11:39:58.377Z,26.98
2022-09-12T11:42:37.960Z,27.91
2022-09-12T11:45:17.084Z,28.84
2022-09-12T11:47:51.358Z,28.53
2022-09-12T11:50:26.197Z,29.37
2022-09-12T11:53:01.557Z,28.23
2022-09-12T11:55:38.466Z,28.72
2022-09-12T11:58:09.981Z,27.37
2022-09-12T12:00:42.645Z,27.95
2022-09-12T12:03:19.545Z,27.69
2022-09-12T12:05:53.631Z,27.28
2022-09-12T12:08:25.301Z,27.84
2022-09-12T12:10:57.652Z,27.82
2022-09-12T12:13:31.445Z,27.77
2022-09-12T12:16:04.232Z,27.88
2022-09-12T12:18:34.390Z,27.86
2022-09-12T12:21:23.252Z,28.33
2022-09-12T12:24:15.980Z,28.47
2022-09-12T12:26:55.736Z,28.03
2022-09-12T12:29:48.325Z,27.66
2022-09-12T12:32:25.073Z,27.62
2022-09-12T12:35:04.031Z,27.64
2022-09-12T12:38:07.109Z,27.48
2022-09-12T12:40:36.991Z,27.26
2022-09-12T12:43:32.263Z,27.02
2022-09-12T12:46:09.358Z,26.95
2022-09-12T12:48:51.181Z,26.92
2022-09-12T12:51:41.549Z,26.80
2022-09-12T12:54:28.882Z,26.90
2022-09-12T12:57:17.617Z,26.55
2022-09-12T12:59:53.176Z,26.59
2022-09-12T13:02:31.200Z,26.59
2022-09-12T13:05:02.558Z,26.47
2022-09-12T13:07:35.831Z,26.47
2022-09-12T13:10:07.082Z,26.52
2022-09-12T13:12:44.449Z,26.69
2022-09-12T13:15:48.889Z,26.98
2022-09-12T13:18:23.794Z,26.94
2022-09-12T13:20:57.722Z,26.84
2022-09-12T13:23:28.746Z,26.95
2022-09-12T13:25:59.147Z,27.05
2022-09-12T13:28:30.136Z,26.91
2022-09-12T13:31:10.195Z,26.93
2022-09-12T13:33:42.450Z,26.87
2022-09-12T13:36:38.584Z,26.72
2022-09-12T13:39:20.351Z,26.39
2022-09-12T13:42:30.593Z,26.47
2022-09-12T13:45:04.389Z,26.19
2022-09-12T13:47:38.134Z,26.29
2022-09-12T13:50:09.036Z,26.17
2022-09-12T13:52:40.394Z,26.16
2022-09-12T13:55:19.906Z,26.20
2022-09-12T13:57:59.946Z,26.66
2022-09-12T14:00:32.413Z,26.91
2022-09-12T14:03:18.865Z,27.08
2022-09-12T14:05:56.893Z,27.60
2022-09-12T14:08:26.156Z,27.62
2022-09-12T14:10:55.093Z,27.53
2022-09-12T14:13:26.510Z,27.40
2022-09-12T14:15:59.885Z,26.88
2022-09-12T14:18:31.352Z,26.82
2022-09-12T14:21:10.537Z,26.74
2022-09-12T14:23:42.683Z,26.98
2022-09-12T14:26:15.501Z,26.91
2022-09-12T14:28:47.500Z,26.93
2022-09-12T14:31:25.459Z,26.67
2022-09-12T14:33:55.762Z,26.55
2022-09-12T14:36:28.176Z,26.57
2022-09-12T14:39:01.157Z,26.55
2022-09-12T14:41:33.998Z,26.36
2022-09-12T14:44:07.932Z,26.28
2022-09-12T14:46:39.638Z,26.45
2022-09-12T14:49:11.202Z,26.25
2022-09-12T14:51:42.671Z,26.32
2022-09-12T14:54:39.616Z,26.53
2022-09-12T14:57:29.611Z,26.76
2022-09-12T15:00:18.382Z,26.58
2022-09-12T15:02:49.386Z,26.66
2022-09-12T15:05:27.050Z,26.62
2022-09-12T15:08:00.739Z,26.39
2022-09-12T15:10:33.206Z,26.24
2022-09-12T15:13:23.146Z,26.32
2022-09-12T15:15:53.960Z,26.37
2022-09-12T15:18:25.907Z,26.54
2022-09-12T15:20:57.691Z,27.09
2022-09-12T15:23:33.823Z,27.29
2022-09-12T15:26:02.725Z,26.99
2022-09-12T15:28:32.727Z,27.16
2022-09-12T15:31:08.342Z,27.25
2022-09-12T15:33:38.220Z,27.10
2022-09-12T15:36:15.720Z,27.20
2022-09-12T15:38:44.835Z,27.19
2022-09-12T15:41:17.138Z,27.10
2022-09-12T15:43:47.154Z,27.05
2022-09-12T15:46:17.644Z,27.06
2022-09-12T15:48:47.522Z,26.96
2022-09-12T15:51:17.802Z,26.75
2022-09-12T15:53:47.570Z,26.71
2022-09-12T15:56:17.300Z,26.61
2022-09-12T15:58:58.416Z,26.69
2022-09-12T16:01:29.016Z,26.66
2022-09-12T16:03:59.485Z,26.57
2022-09-12T16:06:32.487Z,26.51
2022-09-12T16:09:05.388Z,26.49
2022-09-12T16:11:33.806Z,26.49
2022-09-12T16:14:03.860Z,26.49
2022-09-12T16:16:32.417Z,26.44
2022-09-12T16:19:02.325Z,26.25
2022-09-12T16:21:31.053Z,25.98
2022-09-12T16:23:59.560Z,25.58
2022-09-12T16:26:28.256Z,25.08
2022-09-12T16:28:57.286Z,24.58
2022-09-12T16:31:26.781Z,24.74
2022-09-12T16:33:55.411Z,24.54
2022-09-12T16:36:28.510Z,24.36
2022-09-12T16:38:57.045Z,23.94
2022-09-12T16:41:26.509Z,23.84
2022-09-12T16:43:55.840Z,23.74
2022-09-12T16:46:26.045Z,23.74
2022-09-12T16:48:56.779Z,23.74
2022-09-12T16:51:28.970Z,23.72
2022-09-12T16:53:58.137Z,23.77
2022-09-12T16:56:27.293Z,23.79
2022-09-12T16:58:56.005Z,23.76
2022-09-12T17:01:26.310Z,23.68
2022-09-12T17:03:56.396Z,23.63
2022-09-12T17:06:27.399Z,23.58
2022-09-12T17:09:00.819Z,23.29
2022-09-12T17:11:31.883Z,23.03
2022-09-12T17:14:06.477Z,22.91
2022-09-12T17:16:36.771Z,22.73
2022-09-12T17:19:06.134Z,22.58
2022-09-12T17:21:36.631Z,22.76
2022-09-12T17:24:05.515Z,22.94
2022-09-12T17:26:34.186Z,22.77
2022-09-12T17:29:03.297Z,22.45
2022-09-12T17:31:32.189Z,22.24
2022-09-12T17:34:01.645Z,22.26
2022-09-12T17:36:32.098Z,22.19
2022-09-12T17:39:03.925Z,22.13
2022-09-12T17:41:33.277Z,22.36
2022-09-12T17:44:03.613Z,22.48
2022-09-12T17:46:35.166Z,22.20
2022-09-12T17:49:05.610Z,22.19
2022-09-12T17:51:34.527Z,22.15
2022-09-12T17:54:06.846Z,22.13
2022-09-12T17:56:37.273Z,22.28
2022-09-12T17:59:07.544Z,22.27
2022-09-12T18:01:53.900Z,22.26
2022-09-12T18:04:22.373Z,22.40
2022-09-12T18:06:51.086Z,22.54
2022-09-12T18:09:23.509Z,22.57
2022-09-12T18:11:53.165Z,22.57
2022-09-12T18:14:21.926Z,22.38
2022-09-12T18:16:51.198Z,22.29
2022-09-12T18:19:19.938Z,22.32
2022-09-12T18:21:48.373Z,22.27
2022-09-12T18:24:17.367Z,22.31
2022-09-12T18:26:47.960Z,22.15
2022-09-12T18:29:17.448Z,22.17
2022-09-12T18:31:46.838Z,22.12
2022-09-12T18:34:15.914Z,22.23
2022-09-12T18:36:46.548Z,22.11
2022-09-12T18:39:15.539Z,22.24
2022-09-12T18:41:44.039Z,22.09
2022-09-12T18:44:14.104Z,21.97
2022-09-12T18:46:42.643Z,21.77
2022-09-12T18:49:11.461Z,21.71
2022-09-12T18:51:41.976Z,21.76
2022-09-12T18:54:14.584Z,21.81
2022-09-12T18:56:44.282Z,21.88
2022-09-12T18:59:15.151Z,21.96
2022-09-12T19:01:44.255Z,21.96
2022-09-12T19:04:15.081Z,21.72
2022-09-12T19:06:45.357Z,21.68
2022-09-12T19:09:15.766Z,21.77
2022-09-12T19:11:49.875Z,21.93
2022-09-12T19:14:22.677Z,22.00
2022-09-12T19:16:52.311Z,22.04
2022-09-12T19:19:21.365Z,22.01
2022-09-12T19:21:49.829Z,21.93
2022-09-12T19:24:18.527Z,22.02
2022-09-12T19:26:47.147Z,22.07
2022-09-12T19:29:16.827Z,21.83
2022-09-12T19:31:47.493Z,21.71
2022-09-12T19:34:16.447Z,21.83
2022-09-12T19:36:46.752Z,21.77
2022-09-12T19:39:16.616Z,21.75
2022-09-12T19:41:45.780Z,21.80
2022-09-12T19:44:14.617Z,21.69
2022-09-12T19:46:43.562Z,21.57
2022-09-12T19:49:14.059Z,21.39
2022-09-12T19:51:42.549Z,21.34
2022-09-12T19:54:11.116Z,21.40
2022-09-12T19:56:39.565Z,21.24
2022-09-12T19:59:08.805Z,21.18
2022-09-12T20:01:37.954Z,21.09
2022-09-12T20:04:07.045Z,21.08
2022-09-12T20:06:36.991Z,21.05
2022-09-12T20:09:05.532Z,21.03
2022-09-12T20:11:34.160Z,21.08
2022-09-12T20:14:03.002Z,21.24
2022-09-12T20:16:33.627Z,21.33
2022-09-12T20:19:06.155Z,21.45
2022-09-12T20:21:37.167Z,21.34
2022-09-12T20:24:07.008Z,21.37
2022-09-12T20:26:35.555Z,21.45
2022-09-12T20:29:05.477Z,21.56
2022-09-12T20:31:34.603Z,21.58
2022-09-12T20:34:03.327Z,21.54
2022-09-12T20:36:32.052Z,21.37
2022-09-12T20:39:03.400Z,21.37
2022-09-12T20:41:33.856Z,21.24
2022-09-12T20:44:02.430Z,21.24
2022-09-12T20:46:30.986Z,21.11
2022-09-12T20:48:59.743Z,20.96
2022-09-12T20:51:29.818Z,21.09
2022-09-12T20:53:59.125Z,21.14
2022-09-12T20:56:29.701Z,21.17
2022-09-12T20:58:59.065Z,21.34
2022-09-12T21:01:29.224Z,21.42
2022-09-12T21:03:57.910Z,21.44
2022-09-12T21:06:26.412Z,21.49
2022-09-12T21:08:58.504Z,21.43
2022-09-12T21:11:28.774Z,21.30
2022-09-12T21:13:58.009Z,21.36
2022-09-12T21:16:26.711Z,21.37
2022-09-12T21:18:57.033Z,21.25
2022-09-12T21:21:26.122Z,21.22
2022-09-12T21:23:55.514Z,21.34
2022-09-12T21:26:24.002Z,21.27
2022-09-12T21:28:53.846Z,21.34
2022-09-12T21:31:22.482Z,21.34
2022-09-12T21:33:52.153Z,21.28
2022-09-12T21:36:20.641Z,21.25
2022-09-12T21:38:49.305Z,21.29
2022-09-12T21:41:19.866Z,21.31
2022-09-12T21:43:48.698Z,21.21
2022-09-12T21:46:19.218Z,21.28
2022-09-12T21:48:47.682Z,21.28
2022-09-12T21:51:16.156Z,21.16
2022-09-12T21:53:44.754Z,21.14
2022-09-12T21:56:13.435Z,21.09
2022-09-12T21:58:41.924Z,21.02
2022-09-12T22:01:12.960Z,20.89
2022-09-12T22:03:44.964Z,20.69
2022-09-12T22:06:14.347Z,20.56
2022-09-12T22:08:43.166Z,20.40
2022-09-12T22:11:13.066Z,20.56
2022-09-12T22:13:44.091Z,20.57
2022-09-12T22:16:13.087Z,20.44
2022-09-12T22:18:43.022Z,20.48
2022-09-12T22:21:16.390Z,20.34
2022-09-12T22:24:02.235Z,20.09
2022-09-12T22:26:34.567Z,20.13
2022-09-12T22:29:03.298Z,20.23
2022-09-12T22:31:32.121Z,20.42
2022-09-12T22:34:02.059Z,20.39
2022-09-12T22:36:31.401Z,20.35
2022-09-12T22:39:01.055Z,20.29
2022-09-12T22:41:29.615Z,20.40
2022-09-12T22:43:58.669Z,20.54
2022-09-12T22:46:27.696Z,20.58
2022-09-12T22:48:56.894Z,20.65
2022-09-12T22:51:27.184Z,20.61
2022-09-12T22:53:56.604Z,20.64
2022-09-12T22:56:25.156Z,20.55
2022-09-12T22:58:54.218Z,20.43
2022-09-12T23:01:23.982Z,20.49
2022-09-12T23:03:52.627Z,20.51
2022-09-12T23:06:21.390Z,20.45
2022-09-12T23:08:51.446Z,20.28
2022-09-12T23:11:21.605Z,20.43
2022-09-12T23:13:52.290Z,20.45
2022-09-12T23:16:23.330Z,20.36
2022-09-12T23:18:52.311Z,20.50
2022-09-12T23:21:22.657Z,20.41
2022-09-12T23:23:52.559Z,20.23
2022-09-12T23:26:23.111Z,20.33
2022-09-12T23:28:53.686Z,20.40
2022-09-12T23:31:23.332Z,20.41
2022-09-12T23:33:54.203Z,20.47
2022-09-12T23:36:24.333Z,20.30
2022-09-12T23:38:55.782Z,20.38
2022-09-12T23:41:24.634Z,20.35
2022-09-12T23:43:53.436Z,20.35
2022-09-12T23:46:23.129Z,20.50
2022-09-12T23:48:53.344Z,20.85
2022-09-12T23:51:22.872Z,20.93
2022-09-12T23:53:51.546Z,20.91
2022-09-12T23:56:22.276Z,20.91
2022-09-12T23:58:50.810Z,20.85
